sensor_id;sensor_type;location;lat;lon;timestamp;P1;durP1;ratioP1;P2;durP2;ratioP2
8885;SDS011;4479;51.162;13.906;2022-09-16T00:09:58;0.83;;;0.80;;
8885;SDS011;4479;51.162;13.906;2022-09-16T00:20:02;1.03;;;0.70;;
8885;SDS011;4479;51.162;13.906;2022-09-16T00:30:06;1.70;;;0.60;;
8885;SDS011;4479;51.162;13.906;2022-09-16T00:40:11;1.33;;;0.60;;
8885;SDS011;4479;51.162;13.906;2022-09-16T00:50:14;1.40;;;0.70;;
8885;SDS011;4479;51.162;13.906;2022-09-16T01:00:24;1.27;;;0.70;;
8885;SDS011;4479;51.162;13.906;2022-09-16T01:10:27;1.87;;;0.67;;
8885;SDS011;4479;51.162;13.906;2022-09-16T01:31:08;2.50;;;0.80;;
8885;SDS011;4479;51.162;13.906;2022-09-16T01:41:17;1.30;;;0.87;;
8885;SDS011;4479;51.162;13.906;2022-09-16T01:51:29;3.03;;;1.20;;
8885;SDS011;4479;51.162;13.906;2022-09-16T02:01:38;1.30;;;1.00;;
8885;SDS011;4479;51.162;13.906;2022-09-16T02:11:46;2.27;;;1.00;;
8885;SDS011;4479;51.162;13.906;2022-09-16T02:21:52;1.00;;;0.90;;
8885;SDS011;4479;51.162;13.906;2022-09-16T02:31:58;2.20;;;1.03;;
8885;SDS011;4479;51.162;13.906;2022-09-16T02:42:04;2.47;;;0.90;;
8885;SDS011;4479;51.162;13.906;2022-09-16T02:52:12;1.10;;;0.80;;
8885;SDS011;4479;51.162;13.906;2022-09-16T03:02:19;0.97;;;0.73;;
8885;SDS011;4479;51.162;13.906;2022-09-16T03:12:27;1.30;;;0.80;;
8885;SDS011;4479;51.162;13.906;2022-09-16T03:22:43;1.10;;;0.90;;
8885;SDS011;4479;51.162;13.906;2022-09-16T03:32:51;3.97;;;0.90;;
8885;SDS011;4479;51.162;13.906;2022-09-16T03:42:56;1.00;;;0.77;;
8885;SDS011;4479;51.162;13.906;2022-09-16T03:53:01;1.57;;;0.90;;
8885;SDS011;4479;51.162;13.906;2022-09-16T04:03:05;1.90;;;0.90;;
8885;SDS011;4479;51.162;13.906;2022-09-16T04:13:10;0.90;;;0.67;;
8885;SDS011;4479;51.162;13.906;2022-09-16T04:23:14;2.20;;;0.83;;
8885;SDS011;4479;51.162;13.906;2022-09-16T04:33:20;1.83;;;0.90;;
8885;SDS011;4479;51.162;13.906;2022-09-16T04:43:23;1.00;;;0.90;;
8885;SDS011;4479;51.162;13.906;2022-09-16T04:53:29;1.30;;;0.80;;
8885;SDS011;4479;51.162;13.906;2022-09-16T05:03:33;3.43;;;1.20;;
8885;SDS011;4479;51.162;13.906;2022-09-16T05:13:44;2.07;;;0.80;;
8885;SDS011;4479;51.162;13.906;2022-09-16T05:23:47;0.97;;;0.80;;
8885;SDS011;4479;51.162;13.906;2022-09-16T05:33:53;2.50;;;0.90;;
8885;SDS011;4479;51.162;13.906;2022-09-16T05:43:57;1.43;;;0.97;;
8885;SDS011;4479;51.162;13.906;2022-09-16T05:54:01;2.13;;;1.10;;
8885;SDS011;4479;51.162;13.906;2022-09-16T07:59:59;3.37;;;0.90;;
8885;SDS011;4479;51.162;13.906;2022-09-16T08:10:11;2.63;;;1.00;;
8885;SDS011;4479;51.162;13.906;2022-09-16T08:20:17;1.43;;;0.90;;
8885;SDS011;4479;51.162;13.906;2022-09-16T08:30:21;1.77;;;0.90;;
8885;SDS011;4479;51.162;13.906;2022-09-16T08:40:28;1.50;;;0.80;;
8885;SDS011;4479;51.162;13.906;2022-09-16T08:50:36;1.13;;;0.73;;
8885;SDS011;4479;51.162;13.906;2022-09-16T09:00:45;1.63;;;1.10;;
8885;SDS011;4479;51.162;13.906;2022-09-16T09:10:51;4.53;;;0.73;;
8885;SDS011;4479;51.162;13.906;2022-09-16T09:21:02;2.23;;;0.73;;
8885;SDS011;4479;51.162;13.906;2022-09-16T09:31:15;1.00;;;0.70;;
8885;SDS011;4479;51.162;13.906;2022-09-16T09:41:26;1.63;;;0.70;;
8885;SDS011;4479;51.162;13.906;2022-09-16T09:51:32;0.97;;;0.60;;
8885;SDS011;4479;51.162;13.906;2022-09-16T10:24:28;0.80;;;0.70;;
8885;SDS011;4479;51.162;13.906;2022-09-16T10:34:32;0.80;;;0.57;;
8885;SDS011;4479;51.162;13.906;2022-09-16T10:44:38;0.57;;;0.57;;
8885;SDS011;4479;51.162;13.906;2022-09-16T10:54:41;1.60;;;0.77;;
8885;SDS011;4479;51.162;13.906;2022-09-16T11:04:52;3.23;;;2.50;;
8885;SDS011;4479;51.162;13.906;2022-09-16T11:14:59;2.67;;;2.13;;
8885;SDS011;4479;51.162;13.906;2022-09-16T11:25:18;1.40;;;1.30;;
8885;SDS011;4479;51.162;13.906;2022-09-16T11:35:38;1.93;;;1.67;;
8885;SDS011;4479;51.162;13.906;2022-09-16T11:46:04;1.30;;;1.20;;
8885;SDS011;4479;51.162;13.906;2022-09-16T11:56:12;1.07;;;0.80;;
8885;SDS011;4479;51.162;13.906;2022-09-16T12:06:20;1.00;;;0.70;;
8885;SDS011;4479;51.162;13.906;2022-09-16T12:16:26;0.90;;;0.77;;
8885;SDS011;4479;51.162;13.906;2022-09-16T12:26:36;1.00;;;0.70;;
8885;SDS011;4479;51.162;13.906;2022-09-16T12:36:41;0.60;;;0.60;;
8885;SDS011;4479;51.162;13.906;2022-09-16T12:57:27;1.20;;;0.70;;
8885;SDS011;4479;51.162;13.906;2022-09-16T13:07:38;1.80;;;0.80;;
8885;SDS011;4479;51.162;13.906;2022-09-16T13:17:41;0.93;;;0.70;;
8885;SDS011;4479;51.162;13.906;2022-09-16T13:27:56;2.30;;;1.20;;
8885;SDS011;4479;51.162;13.906;2022-09-16T13:38:10;0.87;;;0.80;;
8885;SDS011;4479;51.162;13.906;2022-09-16T13:48:28;1.57;;;0.90;;
8885;SDS011;4479;51.162;13.906;2022-09-16T13:58:41;1.37;;;1.00;;
8885;SDS011;4479;51.162;13.906;2022-09-16T14:08:56;2.13;;;1.90;;
8885;SDS011;4479;51.162;13.906;2022-09-16T14:19:03;1.17;;;0.80;;
8885;SDS011;4479;51.162;13.906;2022-09-16T14:29:10;0.93;;;0.87;;
8885;SDS011;4479;51.162;13.906;2022-09-16T14:39:14;0.90;;;0.80;;
8885;SDS011;4479;51.162;13.906;2022-09-16T14:49:20;2.27;;;0.90;;
8885;SDS011;4479;51.162;13.906;2022-09-16T14:59:26;1.00;;;0.90;;
8885;SDS011;4479;51.162;13.906;2022-09-16T15:09:35;0.50;;;0.50;;
8885;SDS011;4479;51.162;13.906;2022-09-16T15:19:41;1.20;;;0.60;;
8885;SDS011;4479;51.162;13.906;2022-09-16T15:29:47;0.90;;;0.50;;
8885;SDS011;4479;51.162;13.906;2022-09-16T15:39:55;0.40;;;0.40;;
8885;SDS011;4479;51.162;13.906;2022-09-16T15:50:12;0.97;;;0.67;;
8885;SDS011;4479;51.162;13.906;2022-09-16T16:00:18;0.50;;;0.50;;
8885;SDS011;4479;51.162;13.906;2022-09-16T16:10:24;1.33;;;0.70;;
8885;SDS011;4479;51.162;13.906;2022-09-16T16:20:29;2.30;;;0.90;;
8885;SDS011;4479;51.162;13.906;2022-09-16T16:30:36;1.43;;;1.27;;
8885;SDS011;4479;51.162;13.906;2022-09-16T16:40:48;1.03;;;1.00;;
8885;SDS011;4479;51.162;13.906;2022-09-16T16:50:57;1.37;;;0.90;;
8885;SDS011;4479;51.162;13.906;2022-09-16T17:01:06;1.10;;;1.00;;
8885;SDS011;4479;51.162;13.906;2022-09-16T17:11:13;1.10;;;1.00;;
8885;SDS011;4479;51.162;13.906;2022-09-16T17:21:20;1.53;;;1.03;;
8885;SDS011;4479;51.162;13.906;2022-09-16T17:31:26;1.87;;;1.20;;
8885;SDS011;4479;51.162;13.906;2022-09-16T17:41:31;3.97;;;2.67;;
8885;SDS011;4479;51.162;13.906;2022-09-16T17:51:38;5.03;;;3.40;;
8885;SDS011;4479;51.162;13.906;2022-09-16T18:01:42;3.80;;;2.93;;
8885;SDS011;4479;51.162;13.906;2022-09-16T18:11:48;2.90;;;2.70;;
8885;SDS011;4479;51.162;13.906;2022-09-16T18:21:52;4.23;;;3.37;;
8885;SDS011;4479;51.162;13.906;2022-09-16T18:31:57;2.47;;;2.27;;
8885;SDS011;4479;51.162;13.906;2022-09-16T18:42:01;3.93;;;2.83;;
8885;SDS011;4479;51.162;13.906;2022-09-16T18:52:06;2.47;;;2.27;;
8885;SDS011;4479;51.162;13.906;2022-09-16T19:02:10;2.27;;;2.07;;
8885;SDS011;4479;51.162;13.906;2022-09-16T19:12:16;2.50;;;2.20;;
8885;SDS011;4479;51.162;13.906;2022-09-16T19:22:20;2.53;;;2.00;;
8885;SDS011;4479;51.162;13.906;2022-09-16T19:32:25;2.20;;;1.83;;
8885;SDS011;4479;51.162;13.906;2022-09-16T19:42:28;3.13;;;1.87;;
8885;SDS011;4479;51.162;13.906;2022-09-16T19:52:33;2.27;;;1.60;;
8885;SDS011;4479;51.162;13.906;2022-09-16T20:02:37;2.20;;;1.30;;
8885;SDS011;4479;51.162;13.906;2022-09-16T20:12:44;1.50;;;1.20;;
8885;SDS011;4479;51.162;13.906;2022-09-16T20:22:48;1.33;;;1.23;;
8885;SDS011;4479;51.162;13.906;2022-09-16T20:32:53;1.73;;;1.10;;
8885;SDS011;4479;51.162;13.906;2022-09-16T20:42:56;1.30;;;1.20;;
8885;SDS011;4479;51.162;13.906;2022-09-16T20:53:02;2.23;;;1.20;;
8885;SDS011;4479;51.162;13.906;2022-09-16T21:03:05;1.83;;;1.27;;
8885;SDS011;4479;51.162;13.906;2022-09-16T21:13:12;1.30;;;1.20;;
8885;SDS011;4479;51.162;13.906;2022-09-16T21:23:16;1.47;;;1.37;;
8885;SDS011;4479;51.162;13.906;2022-09-16T21:33:21;3.50;;;1.40;;
8885;SDS011;4479;51.162;13.906;2022-09-16T21:43:26;1.80;;;1.23;;
8885;SDS011;4479;51.162;13.906;2022-09-16T21:53:32;3.20;;;1.03;;
8885;SDS011;4479;51.162;13.906;2022-09-16T22:03:37;1.03;;;0.83;;
8885;SDS011;4479;51.162;13.906;2022-09-16T22:13:42;2.03;;;1.20;;
8885;SDS011;4479;51.162;13.906;2022-09-16T22:23:45;1.00;;;0.77;;
8885;SDS011;4479;51.162;13.906;2022-09-16T22:33:49;2.33;;;1.00;;
8885;SDS011;4479;51.162;13.906;2022-09-16T22:43:53;2.63;;;1.47;;
8885;SDS011;4479;51.162;13.906;2022-09-16T22:53:57;1.57;;;1.00;;
8885;SDS011;4479;51.162;13.906;2022-09-16T23:04:00;1.43;;;1.00;;
8885;SDS011;4479;51.162;13.906;2022-09-16T23:14:05;1.97;;;1.00;;
8885;SDS011;4479;51.162;13.906;2022-09-16T23:24:10;1.67;;;1.07;;
8885;SDS011;4479;51.162;13.906;2022-09-16T23:34:17;2.53;;;1.10;;
8885;SDS011;4479;51.162;13.906;2022-09-16T23:44:21;2.43;;;1.20;;
8885;SDS011;4479;51.162;13.906;2022-09-16T23:54:26;2.07;;;1.20;;
